Terminal Aerodrome Forecast
Issued by NWS Corpus Christi, TX

Home | Current Version | Previous Version | Text Only | Print | Product List | Glossary On
Versions: 1 2 3 4 5 6 7 8 9 10 11 12
000
FTUS44 KCRP 232334
TAFCRP
TAF
KCRP 232334Z 2400/2424 14015G20KT P6SM FEW030 SCT250
     FM240300 15008KT P6SM SCT025
     FM240700 16005KT P6SM BKN015
     FM241300 15008KT P6SM VCSH BKN020
     FM241700 11009KT P6SM VCTS BKN035CB PROB30 2417/2419 5SM TSRA
      OVC030CB
     FM242000 10014G20KT P6SM SCT035 BKN250=

USA.gov is the U.S. government's official web portal to all federal, state and local government web resources and services.